Time;durP1;ratioP1;P1;durP2;ratioP2;P2;SDS_P1;SDS_P2;PMS_P1;PMS_P2;Temp;Humidity;BMP_temperature;BMP_pressure;BME280_temperature;BME280_humidity;BME280_pressure;Samples;Min_cycle;Max_cycle;Signal;HPM_P1;HPM_P2
2022/06/29 00:01:16;;;;;;;1999.90;999.90;;;19.40;99.90;;;;;;5012289;28;20181;-67
2022/06/29 00:03:42;;;;;;;1999.90;999.90;;;19.40;99.90;;;;;;5011911;28;20177;-67
2022/06/29 00:06:07;;;;;;;1999.90;999.90;;;19.30;99.90;;;;;;5011780;28;20177;-67
2022/06/29 00:08:34;;;;;;;1999.90;999.90;;;19.40;99.90;;;;;;5011795;28;20209;-67
2022/06/29 00:10:59;;;;;;;1999.90;999.90;;;19.30;99.90;;;;;;5012300;28;20516;-67
2022/06/29 00:13:25;;;;;;;1999.90;999.90;;;19.10;99.90;;;;;;5015627;28;20390;-67
2022/06/29 00:15:51;;;;;;;1999.90;999.90;;;19.00;99.90;;;;;;5015391;28;20284;-67
2022/06/29 00:18:17;;;;;;;1999.90;999.90;;;18.90;99.90;;;;;;5015413;28;20189;-67
2022/06/29 00:20:42;;;;;;;1999.90;999.90;;;18.90;99.90;;;;;;5015454;28;20170;-67
2022/06/29 00:23:08;;;;;;;1999.90;999.90;;;18.70;99.90;;;;;;5015483;28;20436;-67
2022/06/29 00:25:34;;;;;;;1999.90;999.90;;;18.70;99.90;;;;;;5015444;28;20256;-67
2022/06/29 00:27:59;;;;;;;1999.90;999.90;;;18.70;99.90;;;;;;5015178;28;20662;-67
2022/06/29 00:30:25;;;;;;;1999.90;999.90;;;18.60;99.90;;;;;;5015313;28;20231;-67
2022/06/29 00:32:50;;;;;;;1999.90;999.90;;;18.70;99.90;;;;;;5015220;28;20211;-67
2022/06/29 00:35:16;;;;;;;1999.90;999.90;;;18.70;99.90;;;;;;5015219;28;20176;-67
2022/06/29 00:37:41;;;;;;;1999.90;999.90;;;18.70;99.90;;;;;;5014967;28;20180;-67
2022/06/29 00:40:08;;;;;;;1999.90;999.90;;;18.60;99.90;;;;;;5015168;28;20538;-67
2022/06/29 00:42:33;;;;;;;1999.90;999.90;;;18.60;99.90;;;;;;5015078;28;20175;-67
2022/06/29 00:44:59;;;;;;;1999.90;999.90;;;18.50;99.90;;;;;;5015069;28;20894;-67
2022/06/29 00:47:25;;;;;;;1999.90;999.90;;;18.40;99.90;;;;;;5014910;28;20609;-67
2022/06/29 00:49:51;;;;;;;1999.90;999.90;;;18.30;99.90;;;;;;5014875;28;20432;-67
2022/06/29 00:52:19;;;;;;;1999.90;999.90;;;18.20;99.90;;;;;;5014965;28;20180;-67
2022/06/29 00:54:59;;;;;;;1999.90;999.90;;;18.20;99.90;;;;;;5014912;28;20649;-67
2022/06/29 00:57:27;;;;;;;1999.90;999.90;;;18.10;99.90;;;;;;5014683;28;20451;-67
2022/06/29 00:59:56;;;;;;;1999.90;999.90;;;18.10;99.90;;;;;;5014701;28;20426;-67
2022/06/29 01:02:24;;;;;;;1999.90;999.90;;;18.10;99.90;;;;;;5014717;28;20407;-67
2022/06/29 01:04:50;;;;;;;1999.90;999.90;;;18.10;99.90;;;;;;5014677;28;20478;-67
2022/06/29 01:07:19;;;;;;;1999.90;999.90;;;18.10;99.90;;;;;;5014552;28;20411;-67
2022/06/29 01:09:45;;;;;;;1999.90;999.90;;;18.10;99.90;;;;;;5014382;28;20977;-67
2022/06/29 01:12:12;;;;;;;1999.90;999.90;;;18.10;99.90;;;;;;5014577;28;20418;-67
2022/06/29 01:14:41;;;;;;;1999.90;999.90;;;18.00;99.90;;;;;;5014497;28;20497;-67
2022/06/29 01:17:06;;;;;;;1999.90;999.90;;;17.90;99.90;;;;;;5014308;28;20480;-68
2022/06/29 01:19:32;;;;;;;1999.90;999.90;;;17.80;99.90;;;;;;5014538;28;20431;-68
2022/06/29 01:22:07;;;;;;;1999.90;999.90;;;17.70;99.90;;;;;;5014312;28;20177;-67
2022/06/29 01:24:33;;;;;;;1999.90;999.90;;;17.60;99.90;;;;;;5014350;28;20167;-67
2022/06/29 01:26:59;;;;;;;1999.90;999.90;;;17.50;99.90;;;;;;5014075;28;20472;-67
2022/06/29 01:29:24;;;;;;;1999.90;999.90;;;17.50;99.90;;;;;;5014110;28;20254;-67
2022/06/29 01:31:55;;;;;;;1999.90;999.90;;;17.50;99.90;;;;;;5014233;28;20270;-68
2022/06/29 01:34:21;;;;;;;1999.90;999.90;;;17.50;99.90;;;;;;5014234;28;20183;-67
2022/06/29 01:36:46;;;;;;;1999.90;999.90;;;17.50;99.90;;;;;;5013742;28;20561;-67
2022/06/29 01:39:12;;;;;;;1999.90;999.90;;;17.40;99.90;;;;;;5013908;28;20854;-67
2022/06/29 01:41:37;;;;;;;1999.90;999.90;;;17.40;99.90;;;;;;5013980;28;20232;-67
2022/06/29 01:44:03;;;;;;;1999.90;999.90;;;17.40;99.90;;;;;;5013931;28;20219;-68
2022/06/29 01:46:29;;;;;;;1999.90;999.90;;;17.40;99.90;;;;;;5013505;28;20178;-68
2022/06/29 01:48:54;;;;;;;1999.90;999.90;;;17.40;99.90;;;;;;5013736;28;20223;-67
2022/06/29 01:51:20;;;;;;;1999.90;999.90;;;17.40;99.90;;;;;;5013985;28;20588;-67
2022/06/29 01:53:46;;;;;;;1999.90;999.90;;;17.30;99.90;;;;;;5013695;28;20176;-67
2022/06/29 01:56:11;;;;;;;1999.90;999.90;;;17.40;99.90;;;;;;5012126;28;20202;-67
2022/06/29 01:58:37;;;;;;;1999.90;999.90;;;17.40;99.90;;;;;;5013626;28;20197;-68
2022/06/29 02:01:02;;;;;;;1999.90;999.90;;;17.40;99.90;;;;;;5013563;28;20244;-68
2022/06/29 02:03:28;;;;;;;1999.90;999.90;;;17.30;99.90;;;;;;5013638;28;20266;-68
2022/06/29 02:05:54;;;;;;;1999.90;999.90;;;17.30;99.90;;;;;;5013394;28;20177;-67
2022/06/29 02:08:19;;;;;;;1999.90;999.90;;;17.30;99.90;;;;;;5013039;28;20256;-68
2022/06/29 02:10:45;;;;;;;1999.90;999.90;;;17.30;99.90;;;;;;5013398;28;20177;-67
2022/06/29 02:13:10;;;;;;;1999.90;999.90;;;17.20;99.90;;;;;;5013403;28;20270;-67
2022/06/29 02:15:36;;;;;;;1999.90;999.90;;;17.20;99.90;;;;;;5013165;28;20277;-67
2022/06/29 02:18:02;;;;;;;1999.90;999.90;;;17.20;99.90;;;;;;5012858;28;20207;-68
2022/06/29 02:20:28;;;;;;;1999.90;999.90;;;17.10;99.90;;;;;;5013379;28;20183;-67
2022/06/29 02:22:54;;;;;;;1999.90;999.90;;;17.10;99.90;;;;;;5013072;28;20487;-67
2022/06/29 02:25:20;;;;;;;1999.90;999.90;;;17.10;99.90;;;;;;5013213;28;20170;-68
2022/06/29 02:27:46;;;;;;;1999.90;999.90;;;17.10;99.90;;;;;;5012817;28;20176;-68
2022/06/29 02:30:13;;;;;;;1999.90;999.90;;;17.10;99.90;;;;;;5013064;28;20954;-67
2022/06/29 02:35:25;;;;;;;1999.90;999.90;;;17.10;99.90;;;;;;5012709;28;20415;-68
2022/06/29 02:37:51;;;;;;;1999.90;999.90;;;17.00;99.90;;;;;;5012521;28;20520;-67
2022/06/29 02:40:16;;;;;;;1999.90;999.90;;;16.90;99.90;;;;;;5012941;28;20215;-67
2022/06/29 02:42:42;;;;;;;1999.90;999.90;;;16.90;99.90;;;;;;5012905;28;20193;-68
2022/06/29 02:45:08;;;;;;;1999.90;999.90;;;16.80;99.90;;;;;;5012824;28;20174;-67
2022/06/29 02:47:34;;;;;;;1999.90;999.90;;;16.80;99.90;;;;;;5012503;28;20232;-68
2022/06/29 02:49:59;;;;;;;1999.90;999.90;;;16.80;99.90;;;;;;5012639;28;20483;-68
2022/06/29 02:52:25;;;;;;;1999.90;999.90;;;16.80;99.90;;;;;;5012746;28;20263;-68
2022/06/29 02:54:50;;;;;;;1999.90;999.90;;;16.80;99.90;;;;;;5012638;28;20540;-68
2022/06/29 02:57:16;;;;;;;1999.90;999.90;;;16.80;99.90;;;;;;5012379;28;20284;-67
2022/06/29 02:59:42;;;;;;;1999.90;999.90;;;16.80;99.90;;;;;;5012501;28;20679;-68
2022/06/29 03:02:07;;;;;;;1999.90;999.90;;;16.80;99.90;;;;;;5012557;28;20165;-67
2022/06/29 03:04:34;;;;;;;1999.90;999.90;;;16.80;99.90;;;;;;5012518;28;20191;-67
2022/06/29 03:07:00;;;;;;;1999.90;999.90;;;16.80;99.90;;;;;;5012276;28;20249;-67
2022/06/29 03:09:26;;;;;;;1999.90;999.90;;;16.70;99.90;;;;;;5004946;23;20493;-69
2022/06/29 03:11:52;;;;;;;1999.90;999.90;;;16.70;99.90;;;;;;4973445;28;20747;-69
2022/06/29 03:14:18;;;;;;;1999.90;999.90;;;16.70;99.90;;;;;;4973348;28;20224;-69
2022/06/29 03:16:43;;;;;;;1999.90;999.90;;;16.70;99.90;;;;;;4973016;28;20205;-69
2022/06/29 03:19:09;;;;;;;1999.90;999.90;;;16.70;99.90;;;;;;4973179;28;20185;-69
2022/06/29 03:21:34;;;;;;;1999.90;999.90;;;16.60;99.90;;;;;;4973298;28;20200;-69
2022/06/29 03:24:03;;;;;;;1999.90;999.90;;;16.60;99.90;;;;;;4973293;28;20541;-69
2022/06/29 03:26:29;;;;;;;1999.90;999.90;;;16.60;99.90;;;;;;4972995;28;20173;-69
2022/06/29 03:28:55;;;;;;;1999.90;999.90;;;16.60;99.90;;;;;;4973095;28;20428;-69
2022/06/29 03:31:21;;;;;;;1999.90;999.90;;;16.50;99.90;;;;;;4973261;28;20411;-69
2022/06/29 03:33:46;;;;;;;1999.90;999.90;;;16.50;99.90;;;;;;4973184;28;20204;-69
2022/06/29 03:36:13;;;;;;;1999.90;999.90;;;16.50;99.90;;;;;;4972982;28;20213;-69
2022/06/29 03:38:38;;;;;;;1999.90;999.90;;;16.50;99.90;;;;;;4973120;28;20189;-69
2022/06/29 03:41:04;;;;;;;1999.90;999.90;;;16.40;99.90;;;;;;4973072;28;20418;-69
2022/06/29 03:43:30;;;;;;;1999.90;999.90;;;16.40;99.90;;;;;;4973072;28;20167;-69
2022/06/29 03:45:55;;;;;;;1999.90;999.90;;;16.50;99.90;;;;;;4973193;28;20178;-69
2022/06/29 03:48:21;;;;;;;1999.90;999.90;;;16.50;99.90;;;;;;4976788;28;20438;-69
2022/06/29 03:50:47;;;;;;;1999.90;999.90;;;16.50;99.90;;;;;;4976969;28;20193;-69
2022/06/29 03:53:12;;;;;;;1999.90;999.90;;;16.50;99.90;;;;;;4976898;28;20212;-69
2022/06/29 03:55:38;;;;;;;1999.90;999.90;;;16.40;99.90;;;;;;4976735;28;20200;-69
2022/06/29 03:58:03;;;;;;;1999.90;999.90;;;16.50;99.90;;;;;;4976498;28;20176;-69
2022/06/29 04:00:29;;;;;;;1999.90;999.90;;;16.50;99.90;;;;;;4976863;28;20299;-69
2022/06/29 04:02:55;;;;;;;1999.90;999.90;;;16.50;99.90;;;;;;4976657;28;20217;-69
2022/06/29 04:05:20;;;;;;;1999.90;999.90;;;16.60;99.90;;;;;;4976789;28;20520;-69
2022/06/29 04:07:46;;;;;;;1999.90;999.90;;;16.60;99.90;;;;;;4976419;28;20225;-69
2022/06/29 04:10:11;;;;;;;1999.90;999.90;;;16.70;99.90;;;;;;4976468;28;20233;-69
2022/06/29 04:12:37;;;;;;;1999.90;999.90;;;16.80;99.90;;;;;;4976626;28;20247;-69
2022/06/29 04:15:05;;;;;;;1999.90;999.90;;;17.00;99.90;;;;;;4976574;28;20178;-69
2022/06/29 04:17:31;;;;;;;1999.90;999.90;;;17.00;99.90;;;;;;4976004;28;20958;-69
2022/06/29 04:19:56;;;;;;;1999.90;999.90;;;17.00;99.90;;;;;;4976370;28;20425;-69
2022/06/29 04:22:22;;;;;;;1999.90;999.90;;;17.20;99.90;;;;;;4976398;28;20493;-69
2022/06/29 04:24:49;;;;;;;1999.90;999.90;;;17.30;99.90;;;;;;4976398;28;20662;-70
2022/06/29 04:27:16;;;;;;;1999.90;999.90;;;17.40;99.90;;;;;;4976000;28;20413;-70
2022/06/29 04:29:41;;;;;;;1999.90;999.90;;;17.50;99.90;;;;;;4976239;28;20433;-69
2022/06/29 04:32:08;;;;;;;1999.90;999.90;;;17.60;99.90;;;;;;4976138;28;20411;-69
2022/06/29 04:34:34;;;;;;;1999.90;999.90;;;17.60;99.90;;;;;;4976222;28;20178;-69
2022/06/29 04:37:00;;;;;;;1999.90;999.90;;;17.60;99.90;;;;;;4975766;28;20520;-69
2022/06/29 04:39:25;;;;;;;1999.90;999.90;;;17.70;99.90;;;;;;4976021;28;20186;-69
2022/06/29 04:41:54;;;;;;;1999.90;999.90;;;17.80;99.90;;;;;;4976045;28;20163;-69
2022/06/29 04:44:20;;;;;;;1999.90;999.90;;;17.80;99.90;;;;;;4976066;28;20174;-69
2022/06/29 04:46:46;;;;;;;1999.90;999.90;;;17.80;99.90;;;;;;4975657;28;20776;-69
2022/06/29 04:49:11;;;;;;;1999.90;999.90;;;17.80;99.90;;;;;;4975835;28;20187;-69
2022/06/29 04:51:37;;;;;;;1999.90;999.90;;;17.80;99.90;;;;;;4975908;28;20175;-69
2022/06/29 04:54:04;;;;;;;1999.90;999.90;;;17.90;99.90;;;;;;4975939;28;20177;-69
2022/06/29 04:56:32;;;;;;;1999.90;999.90;;;17.90;99.90;;;;;;4975254;28;20274;-69
2022/06/29 04:58:58;;;;;;;1999.90;999.90;;;18.00;99.90;;;;;;4975433;28;20420;-69
2022/06/29 05:01:25;;;;;;;1999.90;999.90;;;18.10;99.90;;;;;;4975640;28;20462;-69
2022/06/29 05:03:52;;;;;;;1999.90;999.90;;;18.10;99.90;;;;;;4975653;28;20412;-69
2022/06/29 05:06:18;;;;;;;1999.90;999.90;;;18.20;99.90;;;;;;4975401;28;20412;-69
2022/06/29 05:08:43;;;;;;;1999.90;999.90;;;18.20;99.90;;;;;;4975327;28;20828;-69
2022/06/29 05:11:09;;;;;;;1999.90;999.90;;;18.20;99.90;;;;;;4975571;28;20420;-69
2022/06/29 05:13:35;;;;;;;1999.90;999.90;;;18.30;99.90;;;;;;4975492;28;20176;-69
2022/06/29 05:16:01;;;;;;;1999.90;999.90;;;18.40;99.90;;;;;;4974965;28;20241;-69
2022/06/29 05:18:28;;;;;;;1999.90;999.90;;;18.50;99.90;;;;;;4975332;28;20696;-69
2022/06/29 05:20:54;;;;;;;1999.90;999.90;;;18.50;99.90;;;;;;4975626;28;20181;-69
2022/06/29 05:23:20;;;;;;;1999.90;999.90;;;18.60;99.90;;;;;;4975347;28;20419;-69
2022/06/29 05:25:46;;;;;;;1999.90;999.90;;;18.60;99.90;;;;;;4975297;28;20406;-69
2022/06/29 05:28:11;;;;;;;1999.90;999.90;;;18.70;99.90;;;;;;4974879;28;20560;-69
2022/06/29 05:30:38;;;;;;;1999.90;999.90;;;18.70;99.90;;;;;;4975198;28;20423;-69
2022/06/29 05:33:05;;;;;;;1999.90;999.90;;;18.70;99.90;;;;;;4975130;28;20177;-69
2022/06/29 05:35:33;;;;;;;1999.90;999.90;;;18.90;99.90;;;;;;4975173;28;20412;-69
2022/06/29 05:38:00;;;;;;;1999.90;999.90;;;18.90;99.90;;;;;;4974593;28;20414;-70
2022/06/29 05:40:26;;;;;;;1999.90;999.90;;;19.00;99.90;;;;;;4974972;28;20484;-70
2022/06/29 05:42:52;;;;;;;1999.90;999.90;;;19.00;99.90;;;;;;4974894;28;20377;-69
2022/06/29 05:45:18;;;;;;;1999.90;999.90;;;19.00;99.90;;;;;;4974850;28;20178;-69
2022/06/29 05:47:43;;;;;;;1999.90;999.90;;;19.00;99.90;;;;;;4974553;28;20417;-69
2022/06/29 05:50:10;;;;;;;1999.90;999.90;;;19.10;99.90;;;;;;4974718;28;20247;-69
2022/06/29 05:52:36;;;;;;;1999.90;999.90;;;19.20;99.90;;;;;;4974915;28;20269;-70
2022/06/29 05:55:06;;;;;;;1999.90;999.90;;;19.20;99.90;;;;;;4974716;28;20417;-70
2022/06/29 05:57:33;;;;;;;1999.90;999.90;;;19.30;99.90;;;;;;4974115;28;20493;-69
2022/06/29 06:00:00;;;;;;;1999.90;999.90;;;19.40;99.90;;;;;;4974771;28;20463;-69
2022/06/29 06:02:25;;;;;;;1999.90;999.90;;;19.50;99.90;;;;;;4974477;28;20440;-69
2022/06/29 06:04:52;;;;;;;1999.90;999.90;;;19.50;99.90;;;;;;4974521;28;20443;-69
2022/06/29 06:07:18;;;;;;;1999.90;999.90;;;19.50;99.90;;;;;;4974275;28;20249;-69
2022/06/29 06:09:44;;;;;;;1999.90;999.90;;;19.60;99.90;;;;;;4973475;28;20459;-69
2022/06/29 06:12:09;;;;;;;1999.90;999.90;;;19.60;99.90;;;;;;4974270;28;20486;-69
2022/06/29 06:14:35;;;;;;;1999.90;999.90;;;19.70;99.90;;;;;;4974397;28;20201;-69
2022/06/29 06:17:00;;;;;;;1999.90;999.90;;;19.80;99.90;;;;;;4974093;28;20213;-69
2022/06/29 06:19:26;;;;;;;1999.90;999.90;;;19.70;99.90;;;;;;4974181;28;20260;-70
2022/06/29 06:21:52;;;;;;;1999.90;999.90;;;19.70;99.90;;;;;;4974340;28;20243;-70
2022/06/29 06:24:17;;;;;;;1999.90;999.90;;;19.70;99.90;;;;;;4974164;28;20667;-70
2022/06/29 06:26:43;;;;;;;1999.90;999.90;;;19.80;99.90;;;;;;4973733;28;20203;-70
2022/06/29 06:29:08;;;;;;;1999.90;999.90;;;19.70;99.90;;;;;;4974051;28;20274;-70
2022/06/29 06:31:34;;;;;;;1999.90;999.90;;;19.70;99.90;;;;;;4974239;28;20175;-69
2022/06/29 06:34:00;;;;;;;1999.90;999.90;;;19.70;99.90;;;;;;4974012;28;20166;-69
2022/06/29 06:36:26;;;;;;;1999.90;999.90;;;19.80;99.90;;;;;;4973577;28;20225;-70
2022/06/29 06:38:52;;;;;;;1999.90;999.90;;;19.90;99.90;;;;;;4973751;28;20434;-70
2022/06/29 06:41:25;;;;;;;1999.90;999.90;;;19.90;99.90;;;;;;4973776;28;20250;-69
2022/06/29 06:43:56;;;;;;;1999.90;999.90;;;19.90;99.90;;;;;;4973858;28;20180;-70
2022/06/29 06:46:22;;;;;;;1999.90;999.90;;;19.90;99.90;;;;;;4973596;28;20398;-70
2022/06/29 06:48:52;;;;;;;1999.90;999.90;;;19.90;99.90;;;;;;4973792;28;20459;-69
2022/06/29 06:51:19;;;;;;;1999.90;999.90;;;19.90;99.90;;;;;;4973770;28;20414;-69
2022/06/29 06:53:45;;;;;;;1999.90;999.90;;;20.00;99.90;;;;;;4973698;28;20845;-69
2022/06/29 06:56:12;;;;;;;1999.90;999.90;;;20.10;99.90;;;;;;4973303;28;20489;-69
2022/06/29 06:58:37;;;;;;;1999.90;999.90;;;20.20;99.90;;;;;;4973823;28;20925;-69
2022/06/29 07:01:04;;;;;;;1999.90;999.90;;;20.30;99.90;;;;;;4973493;28;20465;-69
2022/06/29 07:03:31;;;;;;;1999.90;999.90;;;20.30;99.90;;;;;;4973567;28;20549;-70
2022/06/29 07:06:00;;;;;;;1999.90;999.90;;;20.30;99.90;;;;;;4973305;28;20928;-70
2022/06/29 07:08:27;;;;;;;1999.90;999.90;;;20.30;99.90;;;;;;4973247;28;20490;-69
2022/06/29 07:10:53;;;;;;;1999.90;999.90;;;20.40;99.90;;;;;;4973391;28;20418;-70
2022/06/29 07:13:19;;;;;;;1999.90;999.90;;;20.30;99.90;;;;;;4973585;28;20411;-70
2022/06/29 07:15:44;;;;;;;1999.90;999.90;;;20.20;99.90;;;;;;4973494;28;20210;-70
2022/06/29 07:18:10;;;;;;;1999.90;999.90;;;20.20;99.90;;;;;;4973059;28;20175;-70
2022/06/29 07:20:35;;;;;;;1999.90;999.90;;;20.20;99.90;;;;;;4973148;28;20175;-69
2022/06/29 07:23:01;;;;;;;1999.90;999.90;;;20.30;99.90;;;;;;4973255;28;20170;-70
2022/06/29 07:25:27;;;;;;;1999.90;999.90;;;20.30;99.90;;;;;;4973239;28;20556;-70
2022/06/29 07:27:52;;;;;;;1999.90;999.90;;;20.30;99.90;;;;;;4971848;28;20171;-70
2022/06/29 07:30:18;;;;;;;1999.90;999.90;;;20.30;99.90;;;;;;4973266;28;20191;-69
2022/06/29 07:32:44;;;;;;;1999.90;999.90;;;20.40;99.90;;;;;;4973246;28;20907;-70
2022/06/29 07:35:10;;;;;;;1999.90;999.90;;;20.40;99.90;;;;;;4973180;28;20173;-70
2022/06/29 07:37:35;;;;;;;1999.90;999.90;;;20.50;99.90;;;;;;4972849;28;20681;-69
2022/06/29 07:40:01;;;;;;;1999.90;999.90;;;20.50;99.90;;;;;;4973052;28;20427;-70
2022/06/29 07:42:27;;;;;;;1999.90;999.90;;;20.50;99.90;;;;;;4972989;28;20680;-70
2022/06/29 07:44:52;;;;;;;1999.90;999.90;;;20.50;99.90;;;;;;4973238;28;20651;-70
2022/06/29 07:47:18;;;;;;;1999.90;999.90;;;20.60;99.90;;;;;;4972698;28;20185;-69
2022/06/29 07:49:43;;;;;;;1999.90;999.90;;;20.70;99.90;;;;;;4972945;28;20187;-69
2022/06/29 07:52:09;;;;;;;1999.90;999.90;;;20.70;99.90;;;;;;4973022;28;20179;-69
2022/06/29 07:54:34;;;;;;;1999.90;999.90;;;20.70;99.90;;;;;;4972940;28;20721;-69
2022/06/29 07:57:00;;;;;;;1999.90;999.90;;;20.80;99.90;;;;;;4972619;28;20207;-69
2022/06/29 07:59:26;;;;;;;1999.90;999.90;;;20.90;99.90;;;;;;4972922;28;20188;-69
2022/06/29 08:01:51;;;;;;;1999.90;999.90;;;20.90;99.90;;;;;;4971681;28;20181;-70
2022/06/29 08:04:17;;;;;;;1999.90;999.90;;;21.10;99.90;;;;;;4972844;28;20173;-69
2022/06/29 08:06:42;;;;;;;1999.90;999.90;;;21.30;99.90;;;;;;4972455;28;20176;-69
2022/06/29 08:09:09;;;;;;;1999.90;999.90;;;21.50;99.90;;;;;;4969286;28;20212;-69
2022/06/29 08:11:34;;;;;;;1999.90;999.90;;;21.60;99.90;;;;;;4971289;28;20182;-69
2022/06/29 08:14:00;;;;;;;1999.90;999.90;;;21.70;99.90;;;;;;4972062;28;20412;-69
2022/06/29 08:16:25;;;;;;;1999.90;999.90;;;21.80;99.90;;;;;;4971456;28;20289;-69
2022/06/29 08:18:51;;;;;;;1999.90;999.90;;;21.90;99.90;;;;;;4972038;28;20209;-70
2022/06/29 08:21:17;;;;;;;1999.90;999.90;;;22.00;99.90;;;;;;4971992;28;20222;-69
2022/06/29 08:23:42;;;;;;;1999.90;999.90;;;22.20;99.90;;;;;;4972127;28;20604;-70
2022/06/29 08:26:08;;;;;;;1999.90;999.90;;;22.40;99.90;;;;;;4971509;28;20565;-69
2022/06/29 08:28:33;;;;;;;1999.90;999.90;;;22.60;99.90;;;;;;4970120;28;20422;-66
2022/06/29 08:30:59;;;;;;;1999.90;999.90;;;22.70;99.90;;;;;;4971787;28;20257;-66
2022/06/29 08:33:25;;;;;;;1999.90;999.90;;;22.80;99.90;;;;;;4970768;28;20179;-72
2022/06/29 08:35:51;;;;;;;1999.90;999.90;;;22.80;99.90;;;;;;4974718;28;20205;-71
2022/06/29 08:38:17;;;;;;;1999.90;999.90;;;22.90;99.90;;;;;;4974754;28;20216;-70
2022/06/29 08:40:47;;;;;;;1999.90;999.90;;;23.10;99.90;;;;;;4974708;28;20501;-71
2022/06/29 08:43:16;;;;;;;1999.90;999.90;;;23.20;99.90;;;;;;4973980;28;20396;-72
2022/06/29 08:45:44;;;;;;;1999.90;999.90;;;23.30;99.90;;;;;;4974944;28;20384;-67
2022/06/29 08:48:14;;;;;;;1999.90;999.90;;;23.30;99.90;;;;;;4974281;28;20858;-67
2022/06/29 08:50:50;;;;;;;1999.90;999.90;;;23.30;99.90;;;;;;4974623;28;20418;-66
2022/06/29 08:53:16;;;;;;;1999.90;999.90;;;23.20;99.90;;;;;;4974870;28;20402;-66
2022/06/29 08:55:44;;;;;;;1999.90;999.90;;;23.10;99.90;;;;;;4974698;28;20847;-67
2022/06/29 08:58:20;;;;;;;1999.90;999.90;;;23.10;99.90;;;;;;4975122;28;20171;-66
2022/06/29 09:00:46;;;;;;;1999.90;999.90;;;23.10;99.90;;;;;;4974824;28;20376;-68
2022/06/29 09:03:14;;;;;;;1999.90;999.90;;;23.00;99.90;;;;;;4974764;28;20402;-66
2022/06/29 09:05:39;;;;;;;1999.90;999.90;;;22.90;99.90;;;;;;4975020;28;20446;-70
2022/06/29 09:08:05;;;;;;;1999.90;999.90;;;22.80;99.90;;;;;;4970101;28;20456;-66
2022/06/29 09:10:31;;;;;;;1999.90;999.90;;;22.80;99.90;;;;;;5021796;23;20272;-68
2022/06/29 09:13:01;;;;;;;1999.90;999.90;;;22.90;99.90;;;;;;4979835;28;20414;-67
2022/06/29 09:15:38;;;;;;;1999.90;999.90;;;22.80;99.90;;;;;;4978497;28;20387;-68
2022/06/29 09:18:24;;;;;;;1999.90;999.90;;;22.90;99.90;;;;;;4968939;28;20429;-69
2022/06/29 09:20:56;;;;;;;1999.90;999.90;;;23.00;99.90;;;;;;4986700;28;20451;-68
2022/06/29 09:23:23;;;;;;;1999.90;999.90;;;23.10;99.90;;;;;;4978699;28;20824;-69
2022/06/29 09:25:50;;;;;;;1999.90;999.90;;;23.30;99.90;;;;;;4979679;28;20416;-67
2022/06/29 09:28:28;;;;;;;1999.90;999.90;;;23.50;99.90;;;;;;4976776;28;20384;-68
2022/06/29 09:30:55;;;;;;;1999.90;999.90;;;23.80;99.90;;;;;;4982368;28;20460;-68
2022/06/29 09:33:23;;;;;;;1999.90;999.90;;;24.00;99.90;;;;;;4981149;28;20392;-69
2022/06/29 09:36:19;;;;;;;1999.90;999.90;;;24.20;99.90;;;;;;4975392;28;20556;-68
2022/06/29 09:38:45;;;;;;;1999.90;999.90;;;24.30;99.90;;;;;;4970479;28;20477;-69
2022/06/29 09:41:12;;;;;;;1999.90;999.90;;;24.50;99.90;;;;;;4984886;28;20795;-68
2022/06/29 09:43:42;;;;;;;1999.90;999.90;;;24.70;99.90;;;;;;4971438;28;20510;-68
2022/06/29 09:46:10;;;;;;;1999.90;999.90;;;24.90;99.90;;;;;;4967123;28;20475;-68
2022/06/29 09:48:38;;;;;;;1999.90;999.90;;;25.10;99.90;;;;;;4975530;28;20388;-68
2022/06/29 09:54:10;;;;;;;1999.90;999.90;;;25.60;99.90;;;;;;4974804;28;20424;-68
2022/06/29 09:56:45;;;;;;;1999.90;999.90;;;25.80;99.90;;;;;;4973605;28;20449;-69
2022/06/29 09:59:13;;;;;;;1999.90;999.90;;;25.80;99.90;;;;;;4984488;28;20456;-68
2022/06/29 10:04:26;;;;;;;1999.90;999.90;;;25.90;99.90;;;;;;4977857;28;20396;-67
2022/06/29 10:06:53;;;;;;;1999.90;999.90;;;26.00;99.90;;;;;;4973371;28;20412;-67
2022/06/29 10:09:19;;;;;;;1999.90;999.90;;;25.90;99.90;;;;;;4976390;28;20487;-67
2022/06/29 10:14:41;;;;;;;1999.90;999.90;;;25.80;99.90;;;;;;4977172;28;20475;-67
2022/06/29 10:17:34;;;;;;;1999.90;999.90;;;25.80;99.90;;;;;;4965958;28;20929;-68
2022/06/29 10:20:22;;;;;;;1999.90;999.90;;;25.60;99.90;;;;;;4969151;28;20696;-69
2022/06/29 10:22:48;;;;;;;1999.90;999.90;;;25.40;99.90;;;;;;4976696;28;20414;-67
2022/06/29 10:25:14;;;;;;;1999.90;999.90;;;25.30;99.90;;;;;;4974861;28;20468;-67
2022/06/29 10:28:21;;;;;;;1999.90;999.90;;;25.20;99.90;;;;;;4973295;28;20178;-68
2022/06/29 10:30:47;;;;;;;1999.90;999.90;;;25.20;99.90;;;;;;4982511;28;20452;-67
2022/06/29 10:33:33;;;;;;;1999.90;999.90;;;25.40;99.90;;;;;;4978857;28;20388;-67
2022/06/29 10:36:06;;;;;;;1999.90;999.90;;;25.70;99.90;;;;;;4964840;28;20445;-67
2022/06/29 10:38:58;;;;;;;1999.90;999.90;;;26.00;99.90;;;;;;4974274;28;20424;-67
2022/06/29 10:44:08;;;;;;;1999.90;999.90;;;26.50;99.90;;;;;;4970019;28;20405;-69
2022/06/29 10:46:56;;;;;;;1999.90;999.90;;;26.80;99.90;;;;;;4972135;28;20414;-67
2022/06/29 10:49:22;;;;;;;1999.90;999.90;;;26.90;99.90;;;;;;4972249;28;20210;-67
2022/06/29 10:51:51;;;;;;;1999.90;999.90;;;27.10;99.90;;;;;;4982654;28;21170;-67
2022/06/29 10:54:24;;;;;;;1999.90;999.90;;;27.20;99.90;;;;;;4976513;28;21005;-67
2022/06/29 10:56:51;;;;;;;1999.90;999.90;;;27.30;99.90;;;;;;4971812;28;20526;-67
2022/06/29 10:59:37;;;;;;;1999.90;999.90;;;27.40;99.50;;;;;;4974853;28;20491;-67
2022/06/29 11:02:14;;;;;;;1999.90;999.90;;;27.60;97.50;;;;;;4981180;28;20773;-67
2022/06/29 11:04:42;;;;;;;1999.90;999.90;;;27.80;98.90;;;;;;4976166;28;20968;-67
2022/06/29 11:12:48;;;;;;;1999.90;999.90;;;28.40;92.60;;;;;;4980003;28;20424;-67
2022/06/29 11:17:58;;;;;;;1999.90;999.90;;;29.40;83.50;;;;;;4959508;28;20404;-67
2022/06/29 11:20:24;;;;;;;1999.90;999.90;;;29.80;85.50;;;;;;4977351;28;20449;-67
2022/06/29 11:22:50;;;;;;;1999.90;999.90;;;30.10;86.80;;;;;;4977597;28;20266;-67
2022/06/29 11:25:16;;;;;;;1999.90;999.90;;;30.20;82.10;;;;;;4975892;28;20178;-67
2022/06/29 11:27:41;;;;;;;1999.90;999.90;;;30.40;75.60;;;;;;4973351;28;21203;-67
2022/06/29 11:30:09;;;;;;;1999.90;999.90;;;30.10;60.00;;;;;;4976572;28;20206;-68
2022/06/29 11:32:48;;;;;;;1999.90;999.90;;;29.90;61.60;;;;;;4979796;28;20178;-68
2022/06/29 11:35:19;;;;;;;1999.90;999.90;;;29.90;62.50;;;;;;4975748;28;20421;-67
2022/06/29 11:37:50;;;;;;;1999.90;999.90;;;30.10;63.30;;;;;;4972783;28;20466;-67
2022/06/29 11:40:36;;;;;;;1999.90;999.90;;;30.10;58.00;;;;;;4977795;28;20948;-67
2022/06/29 11:43:10;;;;;;;1999.90;999.90;;;30.40;60.00;;;;;;4976764;28;20501;-68
2022/06/29 11:45:41;;;;;;;1999.90;999.90;;;30.50;55.10;;;;;;4968624;28;20417;-67
2022/06/29 11:48:17;;;;;;;1999.90;999.90;;;30.50;58.70;;;;;;4973593;28;21046;-67
2022/06/29 11:50:45;;;;;;;1999.90;999.90;;;30.50;52.20;;;;;;4980055;28;20451;-67
2022/06/29 11:53:11;;;;;;;1999.90;999.90;;;30.50;56.30;;;;;;4976815;28;20409;-67
2022/06/29 11:55:45;;;;;;;1999.90;999.90;;;30.50;56.80;;;;;;4974809;28;20429;-67
2022/06/29 11:58:14;;;;;;;1999.90;999.90;;;30.50;52.20;;;;;;4973110;28;20190;-67
2022/06/29 12:00:40;;;;;;;1999.90;999.90;;;30.60;55.80;;;;;;4979358;28;20878;-67
2022/06/29 12:03:07;;;;;;;1999.90;999.90;;;30.80;55.30;;;;;;4976601;28;20449;-67
2022/06/29 12:05:33;;;;;;;1999.90;999.90;;;30.90;49.60;;;;;;4968981;28;20918;-67
2022/06/29 12:07:58;;;;;;;1999.90;999.90;;;31.00;49.70;;;;;;4960761;28;20417;-68
2022/06/29 12:10:24;;;;;;;1999.90;999.90;;;31.30;46.40;;;;;;4982067;28;20456;-67
2022/06/29 12:12:49;;;;;;;1999.90;999.90;;;31.80;45.90;;;;;;4981385;28;20178;-68
2022/06/29 12:15:16;;;;;;;1999.90;999.90;;;32.50;44.20;;;;;;4978757;28;20179;-67
2022/06/29 12:17:43;;;;;;;1999.90;999.90;;;33.10;42.70;;;;;;4976496;28;20217;-67
2022/06/29 12:20:09;;;;;;;1999.90;999.90;;;33.80;40.90;;;;;;4980254;28;20453;-67
2022/06/29 12:22:36;;;;;;;1999.90;999.90;;;34.50;41.70;;;;;;4982626;28;20422;-67